KSTJ

UTC

Rosecrans Memorial Airport

St Joseph, Kansas, United States

TAF Report

KSTJ 010535Z 0106/0206 15005KT P6SM FEW250 FM011500 18010KT P6SM FEW250

Issued

Oct 01 05:35 UTC

Valid From

Oct 01 06:00 UTC

Valid To

Oct 02 06:00 UTC

TAF Sections

  1. Oct 01 06:00 UTC - Oct 01 15:00 UTC

    TAF KSTJ 010535Z 0106/0206 15005KT P6SM FEW250

    Wind

    150° at 5 KTS

    Visibility

    Greater than 6 SM

    Clouds

    • Few at 25,000 ft AGL
  2. Oct 01 15:00 UTC - Oct 02 06:00 UTC

    FM011500 18010KT P6SM FEW250

    Wind

    180° at 10 KTS

    Visibility

    Greater than 6 SM

    Clouds

    • Few at 25,000 ft AGL